Palo Alto, CA

10:54 AM PDT on October 23, 2014 (GMT -0700)
Palo Alto Of Santa Clara County | Change Station
CLOSE
Current Station
Airport
Location: Palo Alto,
Elevation: 7 ft
Nearby Weather Stations

Elev 7 ft 37.46 °N, 122.12 °W | Updated 1 hour ago

Mostly Cloudy
Mostly Cloudy
64 °F
Feels Like 64 °F
N
0
Wind Variable Wind from North

Today
High -- | Low -- °F
--% Chance of Precip.
Yesterday
High -- | Low -- °F
Precip. -- in
7:24 AM 6:20 PM
Waning Crescent, 0% visible
Pressure 30.08 in
Visibility 10.0 miles
Clouds Mostly Cloudy 10000 ft
Dew Point 55 °F
Humidity 73%
Rainfall 0.00 in
Snow Depth Not available.
UV 1 out of 12
Pollen 1.70 out of 12
Ozone Good
PM2.5 Good
Flu Activity Sporadic
METAR KPAO 231647Z 00000KT 10SM BKN100 18/13 A3008

More Conditions Fewer Conditions

Pressure 30.08 in
Visibility 10.0 miles
Clouds Mostly Cloudy 10000 ft
Dew Point 55 °F
Humidity 73%
Rainfall 0.00 in
Snow Depth Not available.
UV 1 out of 12
Pollen 1.70 out of 12
Ozone Good
PM2.5 Good
Flu Activity Sporadic
METAR KPAO 231647Z 00000KT 10SM BKN100 18/13 A3008

More Conditions Fewer Conditions

10-Day Weather Forecast

Almanac

Astronomy

Oct. 23, 2014 Rise Set
Actual Time 7:24 AM PDT 6:20 PM PDT
Civil Twilight 6:57 AM PDT 6:47 PM PDT
Nautical Twilight 6:27 AM PDT 7:17 PM PDT
Astronomical Twilight 5:56 AM PDT 7:48 PM PDT
Moon 7:09 AM PDT 6:25 PM PDT
Length of Visible Light 11h 49m
Length of Day
10h 56m
Tomorrow will be 2m 15s shorter.
Waning Crescent, 0% of the Moon is Illuminated
Today
Waning Crescent
Oct 23
New
Oct 30
First Quarter
Nov 6
Full
Nov 14
Last Quarter

Today's Extremes

State Highs State Lows

Community

WunderPhotos

Upload Photos

1,764,322 photos uploaded!

WunderBlogs® & News

By Dr. Jeff Masters
Director of Meteorology, Weather Underground
By Kari Strenfel
Meteorologist, Weather Underground
By Christopher C. Burt
Weather Historian, Weather Underground
October 23, 2014
October 23, 2014
October 23, 2014

Nearby

Air Quality

  Air Quality AQ Index Pollutant
Yesterday Good
OZONE
Yesterday Good
PM2.5
Current Good
PM2.5
Current Good
OZONE
Thursday Good
OZONE
Friday Good
OZONE
Saturday Good
OZONE
Sunday Good
OZONE
Monday Good
PM2.5
Tuesday Good
PM2.5

Snow Depth

Station Depth Elevation
Forestdale Creek 0 in 8029 ft
Echo Peak 0 in 7800 ft
Leavitt Lake 1 in 9400 ft
Sonora Pass 0 in 8800 ft
Spratt Creek 0 in 6200 ft

Earthquake Activity

City Distance Mag. Time & Date
No recent earthquake activity has been reported nearby.
Minimum magnitude displayed is 2.5.

Coastal Water Temperatures

Place Temperature
No Stations Reporting

Nearby Weather Stations